Time;durP1;ratioP1;P1;durP2;ratioP2;P2;SDS_P1;SDS_P2;PMS_P1;PMS_P2;Temp;Humidity;BMP_temperature;BMP_pressure;BME280_temperature;BME280_humidity;BME280_pressure;Samples;Min_cycle;Max_cycle;Signal;HPM_P1;HPM_P2
2023/04/27 00:02:08;;;;;;;;;;;14.60;62.80;;;13.49;42.39;98776.06;4886337;28;112683;-86
2023/04/27 00:04:34;;;;;;;;;;;13.20;61.60;;;13.45;42.16;98775.09;4911887;28;124676;-87
2023/04/27 00:07:02;;;;;;;;;;;13.20;61.70;;;13.45;41.75;98775.91;4898921;28;123866;-87
2023/04/27 00:09:29;;;;;;;;;;;13.20;61.80;;;13.45;41.99;98769.53;4920884;28;114201;-87
2023/04/27 00:11:55;;;;;;;;;;;13.20;61.90;;;13.42;42.26;98765.47;4910000;28;113705;-86
2023/04/27 00:14:22;;;;;;;;;;;13.20;61.90;;;13.42;42.30;98767.44;4911096;28;124805;-87
2023/04/27 00:16:48;;;;;;;;;;;13.20;62.00;;;13.41;42.05;98763.84;4907788;28;123984;-84
2023/04/27 00:19:17;;;;;;;;;;;13.10;61.90;;;13.41;42.26;98761.06;4913822;28;114978;-86
2023/04/27 00:21:49;;;;;;;;;;;13.10;62.00;;;13.39;42.19;98759.78;4914125;28;114267;-86
2023/04/27 00:24:15;;;;;;;;;;;13.10;62.10;;;13.35;42.01;98762.41;4912367;28;123857;-86
2023/04/27 00:26:41;;;;;;;;;;;13.10;62.10;;;13.35;42.49;98758.81;4909310;28;123884;-86
2023/04/27 00:29:07;;;;;;;;;;;13.10;62.30;;;13.32;42.32;98757.50;4909442;28;114561;-87
2023/04/27 00:31:34;;;;;;;;;;;13.10;62.40;;;13.31;42.51;98755.06;4902525;28;114130;-87
2023/04/27 00:34:01;;;;;;;;;;;13.10;62.40;;;13.31;42.59;98757.84;4903476;28;124283;-87
2023/04/27 00:36:32;;;;;;;;;;;13.00;62.50;;;13.30;42.48;98750.66;4897594;28;123916;-85
2023/04/27 00:38:59;;;;;;;;;;;13.00;62.60;;;13.27;42.49;98754.91;4912308;28;114217;-87
2023/04/27 00:41:26;;;;;;;;;;;13.00;62.60;;;13.29;42.65;98752.63;4910183;28;113916;-85
2023/04/27 00:43:52;;;;;;;;;;;13.00;62.60;;;13.27;42.67;98746.56;4908387;28;124679;-87
2023/04/27 00:46:19;;;;;;;;;;;13.00;62.80;;;13.26;42.80;98744.97;4907353;28;124101;-86
2023/04/27 00:48:45;;;;;;;;;;;12.90;62.70;;;13.24;42.72;98734.19;4900187;28;114443;-87
2023/04/27 00:51:20;;;;;;;;;;;13.00;62.90;;;13.23;42.58;98746.41;4904622;28;114297;-87
2023/04/27 00:53:51;;;;;;;;;;;13.00;63.10;;;13.20;42.86;98744.28;4909337;28;124108;-86
2023/04/27 00:56:18;;;;;;;;;;;13.00;63.20;;;13.20;43.00;98740.72;4908264;28;124752;-86
2023/04/27 00:58:45;;;;;;;;;;;12.90;63.20;;;13.20;42.87;98746.25;4893171;28;113775;-86
2023/04/27 01:01:19;;;;;;;;;;;12.90;63.40;;;13.19;42.98;98741.84;4907609;28;113875;-86
2023/04/27 01:03:46;;;;;;;;;;;12.90;63.60;;;13.19;43.15;98739.91;4893664;28;124224;-87
2023/04/27 01:06:15;;;;;;;;;;;12.90;63.70;;;13.16;43.37;98740.53;4911022;28;123299;-83
2023/04/27 01:08:42;;;;;;;;;;;12.90;63.90;;;13.18;43.59;98745.78;4908371;28;115361;-83
2023/04/27 01:11:08;;;;;;;;;;;12.90;64.10;;;13.16;43.53;98743.31;4911421;28;114495;-84
2023/04/27 01:13:35;;;;;;;;;;;12.90;64.20;;;13.14;43.51;98740.09;4893050;28;124533;-84
2023/04/27 01:16:08;;;;;;;;;;;12.90;64.50;;;13.15;43.93;98744.47;4911823;28;124368;-85
2023/04/27 01:18:35;;;;;;;;;;;12.90;64.80;;;13.12;43.92;98739.59;4893899;28;114369;-85
2023/04/27 01:21:03;;;;;;;;;;;12.80;64.90;;;13.10;43.93;98750.19;4909190;28;113569;-85
2023/04/27 01:23:30;;;;;;;;;;;12.80;65.10;;;13.08;44.27;98744.16;4878911;28;124122;-85
2023/04/27 01:25:57;;;;;;;;;;;12.80;65.30;;;13.08;44.42;98746.94;4911157;28;123582;-85
2023/04/27 01:28:23;;;;;;;;;;;15.10;68.40;;;13.06;44.49;98752.03;4901546;28;113429;-85
2023/04/27 01:30:50;;;;;;;;;;;12.80;65.60;;;13.05;44.52;98747.59;4916734;28;112811;-85
2023/04/27 01:33:16;;;;;;;;;;;12.80;65.80;;;13.05;44.52;98747.59;4911890;28;123623;-84
2023/04/27 01:35:42;;;;;;;;;;;12.80;65.90;;;13.05;44.81;98747.59;4910553;28;124024;-85
2023/04/27 01:38:08;;;;;;;;;;;12.80;66.10;;;13.02;44.65;98743.53;4896976;28;113417;-83
2023/04/27 01:40:38;;;;;;;;;;;12.70;66.20;;;13.02;44.78;98745.50;4909922;28;113713;-83
2023/04/27 01:43:05;;;;;;;;;;;12.70;66.40;;;12.98;44.96;98744.53;4911599;28;124286;-84
2023/04/27 01:45:32;;;;;;;;;;;12.70;66.50;;;12.99;44.99;98746.16;4911700;28;124579;-84
2023/04/27 01:48:01;;;;;;;;;;;12.70;66.60;;;12.96;45.22;98747.63;4901348;28;114591;-85
2023/04/27 01:50:33;;;;;;;;;;;12.70;66.80;;;12.96;45.38;98744.03;4911527;28;113042;-86
2023/04/27 01:52:59;;;;;;;;;;;12.70;67.10;;;12.94;45.54;98741.59;4900256;28;123553;-83
2023/04/27 01:55:28;;;;;;;;;;;12.60;67.20;;;12.94;45.76;98743.53;4913958;28;123996;-85
2023/04/27 01:57:55;;;;;;;;;;;12.70;67.60;;;12.92;45.35;98751.38;4909586;28;115309;-85
2023/04/27 02:00:25;;;;;;;;;;;12.60;67.70;;;12.93;45.85;98755.78;4912755;28;114460;-84
2023/04/27 02:02:56;;;;;;;;;;;12.60;67.90;;;12.91;45.92;98756.13;4912643;28;124345;-84
2023/04/27 02:05:23;;;;;;;;;;;12.70;68.10;;;12.91;45.61;98755.31;4900438;28;123614;-85
2023/04/27 02:07:50;;;;;;;;;;;12.60;68.10;;;12.87;45.88;98760.69;4906019;28;114285;-85
2023/04/27 02:10:16;;;;;;;;;;;12.60;68.20;;;12.88;46.01;98761.50;4911625;28;113060;-83
2023/04/27 02:12:42;;;;;;;;;;;12.60;68.10;;;12.86;45.95;98764.59;4899319;28;123996;-85
2023/04/27 02:15:10;;;;;;;;;;;12.60;68.20;;;12.85;45.78;98762.16;4913198;28;123786;-84
2023/04/27 02:17:38;;;;;;;;;;;12.60;68.30;;;12.84;45.61;98764.09;4912758;28;114475;-84
2023/04/27 02:20:09;;;;;;;;;;;12.50;68.20;;;12.83;45.65;98763.28;4914075;28;113976;-84
2023/04/27 02:22:48;;;;;;;;;;;12.50;68.10;;;12.83;45.78;98765.25;4911826;28;124310;-84
2023/04/27 02:25:18;;;;;;;;;;;12.60;68.30;;;12.82;45.77;98769.19;4902058;28;124167;-83
2023/04/27 02:27:46;;;;;;;;;;;12.50;68.20;;;12.80;45.87;98761.19;4913008;28;114636;-84
2023/04/27 02:30:13;;;;;;;;;;;12.50;68.40;;;12.80;45.96;98772.28;4916257;28;113199;-86
2023/04/27 02:32:57;;;;;;;;;;;12.50;68.50;;;12.77;46.31;98778.47;4897781;28;123947;-84
2023/04/27 02:35:26;;;;;;;;;;;12.50;68.70;;;12.77;46.13;98775.72;4891457;28;123051;-86
2023/04/27 02:37:56;;;;;;;;;;;12.50;68.90;;;12.77;46.36;98783.22;4894595;28;114625;-85
2023/04/27 02:40:29;;;;;;;;;;;12.50;69.10;;;12.76;46.51;98782.41;4900557;28;112300;-85
2023/04/27 02:42:55;;;;;;;;;;;12.50;69.30;;;12.73;46.44;98777.50;4913960;28;124214;-85
2023/04/27 02:45:22;;;;;;;;;;;12.40;69.40;;;12.73;46.18;98788.59;4900901;28;124237;-85
2023/04/27 02:47:50;;;;;;;;;;;12.40;69.50;;;12.72;46.96;98792.50;4899211;28;115107;-83
2023/04/27 02:50:16;;;;;;;;;;;12.50;69.80;;;12.71;46.71;98790.88;4913129;28;114683;-85
2023/04/27 02:52:44;;;;;;;;;;;12.40;69.80;;;12.71;46.75;98784.53;4914709;28;123813;-85
2023/04/27 02:55:13;;;;;;;;;;;12.40;70.00;;;12.70;47.07;98783.69;4901517;28;124395;-82
2023/04/27 02:57:40;;;;;;;;;;;12.40;70.20;;;12.62;46.96;98792.03;4912306;28;113693;-85
2023/04/27 03:00:12;;;;;;;;;;;12.40;70.30;;;12.55;46.94;98792.53;4913603;28;114329;-85
2023/04/27 03:02:39;;;;;;;;;;;12.30;70.30;;;12.55;47.21;98792.53;4915112;28;123108;-85
2023/04/27 03:05:07;;;;;;;;;;;12.30;70.50;;;12.55;47.11;98795.28;4898827;28;123786;-85
2023/04/27 03:07:33;;;;;;;;;;;12.30;70.60;;;12.54;47.21;98786.13;4900977;28;115301;-85
2023/04/27 03:10:06;;;;;;;;;;;12.30;70.90;;;12.56;47.69;98788.59;4900428;28;113480;-84
2023/04/27 03:12:34;;;;;;;;;;;12.30;71.20;;;12.48;47.63;98781.91;4914893;28;123907;-85
2023/04/27 03:15:00;;;;;;;;;;;12.30;71.10;;;12.48;47.68;98787.44;4914493;28;121922;-85
2023/04/27 03:17:27;;;;;;;;;;;12.30;71.30;;;12.48;47.91;98786.63;4912237;28;113728;-85
2023/04/27 03:19:55;;;;;;;;;;;12.20;71.30;;;12.47;47.93;98785.84;4905182;28;113774;-83
2023/04/27 03:22:22;;;;;;;;;;;12.20;71.50;;;12.47;47.82;98785.03;4909553;28;124176;-84
2023/04/27 03:24:49;;;;;;;;;;;12.20;71.50;;;12.45;48.31;98781.75;4891759;28;123210;-82
2023/04/27 03:27:16;;;;;;;;;;;12.20;71.70;;;12.43;47.99;98784.03;4922997;28;114071;-84
2023/04/27 03:29:51;;;;;;;;;;;12.20;72.00;;;12.41;47.85;98786.28;4912500;28;113788;-85
2023/04/27 03:32:18;;;;;;;;;;;12.20;71.90;;;12.39;48.03;98794.94;4915550;28;124979;-85
2023/04/27 03:34:44;;;;;;;;;;;12.20;72.00;;;12.37;48.49;98791.69;4911596;28;122766;-84
2023/04/27 03:37:10;;;;;;;;;;;12.10;72.20;;;12.33;48.27;98786.00;4911511;28;115423;-85
2023/04/27 03:39:37;;;;;;;;;;;12.10;72.30;;;12.31;48.79;98785.50;4912656;28;113782;-86
2023/04/27 03:42:09;;;;;;;;;;;12.10;72.80;;;12.28;48.74;98788.91;4914215;28;123924;-85
2023/04/27 03:44:36;;;;;;;;;;;12.10;72.90;;;12.29;48.61;98795.25;4901164;28;123601;-84
2023/04/27 03:47:07;;;;;;;;;;;11.40;72.20;;;12.30;48.22;98783.03;4914345;28;113275;-84
2023/04/27 03:49:42;;;;;;;;;;;12.00;72.90;;;12.31;48.76;98791.03;4915076;28;113091;-85
2023/04/27 03:52:08;;;;;;;;;;;12.00;73.00;;;12.32;48.79;98789.88;4898363;28;122962;-86
2023/04/27 03:54:40;;;;;;;;;;;12.00;73.00;;;12.32;48.53;98792.66;4911796;28;124392;-83
2023/04/27 03:57:16;;;;;;;;;;;12.00;73.20;;;12.31;49.13;98793.00;4912941;28;115219;-86
2023/04/27 03:59:47;;;;;;;;;;;12.10;73.40;;;12.33;48.92;98802.59;4914467;28;113457;-85
2023/04/27 04:02:16;;;;;;;;;;;12.10;73.50;;;12.33;48.52;98793.47;4911710;28;124169;-84
2023/04/27 04:04:43;;;;;;;;;;;12.10;73.50;;;12.33;48.67;98796.22;4897953;28;123370;-83
2023/04/27 04:07:09;;;;;;;;;;;12.00;73.50;;;12.33;48.55;98799.84;4913751;28;113474;-86
2023/04/27 04:09:35;;;;;;;;;;;12.00;73.60;;;12.33;48.63;98797.06;4912312;28;114362;-86
2023/04/27 04:12:02;;;;;;;;;;;12.00;73.50;;;12.35;48.80;98802.28;4896945;28;123600;-84
2023/04/27 04:14:29;;;;;;;;;;;12.00;73.50;;;12.34;48.73;98795.91;4897718;28;122901;-84
2023/04/27 04:16:58;;;;;;;;;;;12.00;73.60;;;12.35;48.80;98803.06;4911475;28;114264;-84
2023/04/27 04:19:24;;;;;;;;;;;12.00;73.70;;;12.35;48.57;98802.28;4915190;28;113125;-85
2023/04/27 04:22:05;;;;;;;;;;;12.10;73.80;;;12.36;48.49;98796.41;4913914;28;123302;-86
2023/04/27 04:24:33;;;;;;;;;;;12.00;73.90;;;12.33;48.67;98799.84;4913228;28;123526;-86
2023/04/27 04:26:59;;;;;;;;;;;12.00;74.10;;;12.34;48.69;98804.22;4896561;28;114399;-86
2023/04/27 04:29:26;;;;;;;;;;;12.00;74.10;;;12.33;48.90;98808.16;4894941;28;114260;-85
2023/04/27 04:31:52;;;;;;;;;;;12.00;74.30;;;12.31;48.90;98804.88;4895028;28;124480;-83
2023/04/27 04:34:18;;;;;;;;;;;12.00;74.40;;;12.32;48.93;98808.47;4908628;28;124493;-85
2023/04/27 04:36:56;;;;;;;;;;;12.00;74.40;;;12.32;48.89;98814.81;4913863;28;113614;-85
2023/04/27 04:39:30;;;;;;;;;;;12.00;74.60;;;12.33;48.97;98815.63;4898669;28;113877;-85
2023/04/27 04:41:57;;;;;;;;;;;12.00;74.80;;;12.34;48.88;98815.31;4901090;28;124000;-84
2023/04/27 04:44:26;;;;;;;;;;;12.00;74.90;;;12.34;49.20;98814.50;4897784;28;123259;-86
2023/04/27 04:46:54;;;;;;;;;;;12.00;75.00;;;12.32;49.21;98814.00;4911473;28;114452;-85
2023/04/27 04:49:21;;;;;;;;;;;12.00;75.10;;;12.33;49.33;98808.16;4911073;28;113908;-85
2023/04/27 04:51:48;;;;;;;;;;;12.00;75.20;;;12.35;49.35;98816.94;4912091;28;123530;-84
2023/04/27 04:54:14;;;;;;;;;;;12.00;75.20;;;12.33;49.48;98804.53;4910285;28;123984;-85
2023/04/27 04:56:45;;;;;;;;;;;12.00;75.20;;;12.35;49.23;98819.69;4912661;28;113390;-85
2023/04/27 04:59:19;;;;;;;;;;;12.00;75.30;;;12.34;49.19;98808.97;4911799;28;113886;-86
2023/04/27 05:01:54;;;;;;;;;;;12.00;75.40;;;12.32;49.27;98817.59;4909565;28;124330;-86
2023/04/27 05:04:21;;;;;;;;;;;12.00;75.50;;;12.32;49.36;98814.81;4912843;28;123363;-85
2023/04/27 05:06:49;;;;;;;;;;;12.00;75.60;;;12.34;49.81;98818.09;4910364;28;114367;-87
2023/04/27 05:09:15;;;;;;;;;;;12.00;76.50;;;12.34;49.99;98814.50;4893173;28;113802;-86
2023/04/27 05:11:42;;;;;;;;;;;12.00;76.30;;;12.34;49.51;98820.84;4891681;28;124183;-87
2023/04/27 05:14:10;;;;;;;;;;;12.00;76.00;;;12.34;49.57;98814.50;4909970;28;123802;-85
2023/04/27 05:16:39;;;;;;;;;;;12.00;75.90;;;12.32;49.67;98820.34;4898530;28;115385;-86
2023/04/27 05:19:08;;;;;;;;;;;12.00;76.00;;;12.30;49.40;98819.03;4895371;28;114750;-86
2023/04/27 05:21:36;;;;;;;;;;;12.00;76.10;;;12.25;49.85;98810.88;4912084;28;123451;-85
2023/04/27 05:24:02;;;;;;;;;;;11.90;75.90;;;12.24;49.60;98814.81;4909709;28;123708;-84
2023/04/27 05:26:29;;;;;;;;;;;11.90;76.10;;;12.25;49.60;98811.72;4911470;28;114623;-85
2023/04/27 05:28:55;;;;;;;;;;;13.10;77.40;;;12.27;49.87;98809.44;4912496;28;113761;-85
2023/04/27 05:31:21;;;;;;;;;;;11.90;76.20;;;12.33;50.17;98816.47;4908973;28;124828;-85
2023/04/27 05:33:49;;;;;;;;;;;11.90;76.70;;;12.38;49.81;98821.84;4911118;28;124463;-86
2023/04/27 05:36:16;;;;;;;;;;;12.00;77.10;;;12.43;49.71;98822.81;4902081;28;113891;-86
2023/04/27 05:38:42;;;;;;;;;;;12.00;76.90;;;12.45;49.56;98829.66;4905594;28;113210;-84
2023/04/27 05:41:10;;;;;;;;;;;12.00;76.50;;;12.40;49.54;98826.25;4918201;28;124568;-86
2023/04/27 05:43:37;;;;;;;;;;;12.10;76.50;;;12.39;49.12;98825.44;4916864;28;123121;-85
2023/04/27 05:46:03;;;;;;;;;;;12.10;76.40;;;12.36;49.31;98818.59;4905919;28;114689;-82
2023/04/27 05:48:33;;;;;;;;;;;11.10;75.10;;;12.38;49.00;98827.41;4929129;28;113178;-87
2023/04/27 05:51:06;;;;;;;;;;;12.10;76.00;;;12.43;49.31;98825.59;4915941;28;123334;-86
2023/04/27 05:53:33;;;;;;;;;;;12.10;76.00;;;12.40;49.46;98829.81;4918612;28;123173;-86
2023/04/27 05:56:00;;;;;;;;;;;12.10;76.20;;;12.44;49.57;98829.97;4912085;28;114817;-86
2023/04/27 05:58:26;;;;;;;;;;;12.10;76.80;;;12.47;49.85;98841.25;4913799;28;113913;-86
2023/04/27 06:00:54;;;;;;;;;;;12.10;76.70;;;12.52;49.45;98834.72;4915250;28;124385;-84
2023/04/27 06:03:23;;;;;;;;;;;12.20;76.80;;;12.57;49.30;98837.34;4907252;28;124309;-83
2023/04/27 06:06:00;;;;;;;;;;;12.20;76.40;;;12.63;49.05;98849.91;4905400;28;115581;-85
2023/04/27 06:08:26;;;;;;;;;;;12.20;76.20;;;12.66;48.99;98846.50;4899124;28;114938;-87
2023/04/27 06:10:54;;;;;;;;;;;12.30;76.10;;;12.72;48.17;98850.72;4913622;28;124336;-85
2023/04/27 06:13:20;;;;;;;;;;;12.30;75.80;;;12.75;48.23;98841.75;4908724;28;123992;-88
2023/04/27 06:15:46;;;;;;;;;;;12.30;75.30;;;12.83;47.96;98845.66;4916860;28;112729;-84
2023/04/27 06:18:13;;;;;;;;;;;12.40;75.10;;;12.88;47.81;98844.69;4907546;28;113913;-87
2023/04/27 06:20:39;;;;;;;;;;;12.40;74.80;;;12.90;47.63;98847.97;4903331;28;123696;-86
2023/04/27 06:23:06;;;;;;;;;;;12.50;74.80;;;12.95;47.28;98842.22;4923866;28;123519;-85
2023/04/27 06:25:33;;;;;;;;;;;12.50;74.50;;;12.93;47.13;98855.63;4917020;28;113197;-86
2023/04/27 06:28:01;;;;;;;;;;;12.50;74.00;;;12.95;47.18;98853.31;4917658;28;113802;-87
2023/04/27 06:30:28;;;;;;;;;;;12.40;73.90;;;12.97;46.86;98853.81;4899607;28;123577;-87
2023/04/27 06:32:58;;;;;;;;;;;12.60;73.90;;;13.00;47.00;98858.72;4913522;28;124112;-86
2023/04/27 06:35:27;;;;;;;;;;;12.60;74.10;;;13.07;47.29;98858.22;4914729;28;113808;-87
2023/04/27 06:37:57;;;;;;;;;;;12.60;74.20;;;13.14;47.22;98855.78;4901564;28;113722;-86
2023/04/27 06:40:26;;;;;;;;;;;12.70;74.30;;;13.18;47.04;98853.97;4908746;28;124336;-87
2023/04/27 06:42:53;;;;;;;;;;;12.70;74.40;;;13.16;47.24;98851.50;4909377;28;124665;-87
2023/04/27 06:45:20;;;;;;;;;;;12.70;74.40;;;13.18;47.27;98853.97;4914595;28;114318;-87
2023/04/27 06:47:52;;;;;;;;;;;12.70;74.40;;;13.19;47.36;98856.44;4904351;28;113407;-86
2023/04/27 06:50:19;;;;;;;;;;;12.80;74.60;;;13.22;47.32;98866.06;4912204;28;124103;-88
2023/04/27 06:52:46;;;;;;;;;;;12.80;74.40;;;13.23;47.43;98857.38;4914320;28;124047;-87
2023/04/27 06:55:18;;;;;;;;;;;12.80;74.60;;;13.30;47.45;98856.09;4911570;28;115513;-87
2023/04/27 06:57:45;;;;;;;;;;;12.80;74.60;;;13.38;47.24;98863.59;4911053;28;114699;-87
2023/04/27 07:00:12;;;;;;;;;;;12.90;74.50;;;13.43;46.83;98871.75;4912020;28;123028;-87
2023/04/27 07:02:38;;;;;;;;;;;13.00;74.60;;;13.44;46.85;98859.50;4908551;28;124199;-87
2023/04/27 07:05:06;;;;;;;;;;;13.00;74.30;;;13.45;46.96;98869.47;4912445;28;114809;-86
2023/04/27 07:07:33;;;;;;;;;;;13.00;74.30;;;13.50;46.83;98852.63;4916013;28;112765;-87
2023/04/27 07:10:00;;;;;;;;;;;13.00;74.40;;;13.59;46.62;98858.97;4908903;28;123384;-87
2023/04/27 07:12:26;;;;;;;;;;;13.10;74.40;;;13.70;46.92;98860.25;4908707;28;122930;-87
2023/04/27 07:14:53;;;;;;;;;;;13.20;74.30;;;13.85;46.52;98863.63;4912020;28;115232;-87
2023/04/27 07:17:20;;;;;;;;;;;13.30;74.40;;;14.00;46.12;98867.84;4911024;28;113889;-87
2023/04/27 07:19:46;;;;;;;;;;;13.40;74.30;;;14.14;45.58;98857.28;4907484;28;124548;-87
2023/04/27 07:22:14;;;;;;;;;;;13.50;73.70;;;14.24;45.63;98856.91;4911246;28;123408;-86
2023/04/27 07:24:41;;;;;;;;;;;13.50;73.60;;;14.33;45.37;98859.66;4912043;28;115014;-85
2023/04/27 07:27:07;;;;;;;;;;;13.70;73.30;;;14.42;45.24;98857.63;4909447;28;113664;-84
2023/04/27 07:29:36;;;;;;;;;;;13.80;73.30;;;14.51;44.69;98855.59;4913389;28;123883;-87
2023/04/27 07:32:05;;;;;;;;;;;13.80;72.50;;;14.56;44.05;98855.44;4909965;28;125158;-87
2023/04/27 07:34:31;;;;;;;;;;;13.90;71.70;;;14.56;44.18;98851.81;4910916;28;114005;-87
2023/04/27 07:37:00;;;;;;;;;;;14.00;71.80;;;14.64;44.30;98852.91;4902760;28;113273;-86
2023/04/27 07:39:26;;;;;;;;;;;14.00;71.90;;;14.75;44.16;98854.16;4911441;28;124275;-87
2023/04/27 07:41:53;;;;;;;;;;;14.10;71.80;;;14.84;43.69;98843.78;4915789;28;124490;-87
2023/04/27 07:44:20;;;;;;;;;;;14.20;71.20;;;14.91;43.22;98840.44;4917523;28;115940;-87
2023/04/27 07:46:47;;;;;;;;;;;14.30;70.40;;;14.95;43.32;98845.00;4912493;28;114746;-87
2023/04/27 07:49:14;;;;;;;;;;;14.30;70.20;;;14.99;43.15;98843.16;4914133;28;124258;-87
2023/04/27 07:51:42;;;;;;;;;;;12.90;68.90;;;15.03;42.62;98846.06;4910032;28;124598;-87
2023/04/27 07:54:08;;;;;;;;;;;13.80;69.20;;;15.06;42.83;98850.94;4913077;28;113449;-86
2023/04/27 07:56:34;;;;;;;;;;;14.50;69.60;;;15.14;42.78;98849.25;4910804;28;113742;-86
2023/04/27 07:59:01;;;;;;;;;;;14.50;69.60;;;15.25;42.74;98842.09;4910889;28;123965;-86
2023/04/27 08:01:27;;;;;;;;;;;14.60;69.60;;;15.30;42.14;98839.09;4911156;28;124374;-88
2023/04/27 08:03:54;;;;;;;;;;;14.70;69.40;;;15.43;42.33;98846.34;4910692;28;115032;-83
2023/04/27 08:06:21;;;;;;;;;;;14.80;69.40;;;15.56;41.65;98843.59;4909926;28;113976;-85
2023/04/27 08:08:47;;;;;;;;;;;14.90;68.70;;;15.64;41.24;98839.91;4909622;28;124155;-87
2023/04/27 08:11:13;;;;;;;;;;;15.00;67.70;;;15.70;41.04;98848.88;4896008;28;122879;-84
2023/04/27 08:13:42;;;;;;;;;;;16.40;68.70;;;15.72;40.81;98836.22;4910614;28;114662;-86
2023/04/27 08:16:08;;;;;;;;;;;16.20;68.40;;;15.68;40.96;98829.69;4910807;28;113856;-86
2023/04/27 08:18:34;;;;;;;;;;;15.00;67.10;;;15.66;41.45;98834.78;4909154;28;124216;-86
2023/04/27 08:21:01;;;;;;;;;;;15.10;67.70;;;15.67;41.28;98828.88;4907014;28;124207;-86
2023/04/27 08:23:28;;;;;;;;;;;15.10;67.80;;;15.73;41.54;98829.50;4898689;28;114584;-86
2023/04/27 08:25:57;;;;;;;;;;;15.10;67.90;;;15.76;40.60;98819.63;4908415;28;113865;-86
2023/04/27 08:28:23;;;;;;;;;;;16.40;67.80;;;15.79;40.58;98819.75;4912411;28;124060;-85
2023/04/27 08:30:50;;;;;;;;;;;15.30;66.40;;;15.85;40.10;98825.91;4906341;28;124568;-85
2023/04/27 08:33:16;;;;;;;;;;;15.30;65.70;;;15.88;39.92;98823.25;4907623;28;115460;-85
2023/04/27 08:35:43;;;;;;;;;;;15.30;65.30;;;15.92;40.20;98812.22;4909602;28;114531;-86
2023/04/27 08:38:09;;;;;;;;;;;13.90;64.40;;;15.99;39.61;98808.84;4909544;28;124140;-87
2023/04/27 08:40:41;;;;;;;;;;;14.30;63.90;;;16.05;40.02;98815.81;4909036;28;124648;-85
2023/04/27 08:43:07;;;;;;;;;;;15.40;65.40;;;16.10;40.08;98813.59;4912578;28;114497;-86
2023/04/27 08:45:33;;;;;;;;;;;15.50;65.60;;;16.17;39.80;98810.22;4904431;28;113140;-87
2023/04/27 08:48:01;;;;;;;;;;;15.50;65.10;;;16.24;39.71;98801.28;4901716;28;124590;-85
2023/04/27 08:50:27;;;;;;;;;;;15.60;65.30;;;16.28;39.69;98807.78;4905251;28;123713;-84
2023/04/27 08:52:53;;;;;;;;;;;15.70;65.20;;;16.34;39.05;98798.84;4897131;28;114716;-87
2023/04/27 08:55:20;;;;;;;;;;;15.70;64.00;;;16.40;39.01;98804.97;4898988;28;114154;-86
2023/04/27 08:58:13;;;;;;;;;;;15.80;64.50;;;16.45;38.64;98806.72;4890528;28;124422;-85
2023/04/27 09:00:44;;;;;;;;;;;15.80;63.70;;;16.47;38.40;98794.06;4895983;28;124000;-85
2023/04/27 09:03:23;;;;;;;;;;;15.90;63.50;;;16.48;38.19;98806.00;4902778;28;114435;-86
2023/04/27 09:05:52;;;;;;;;;;;15.90;62.80;;;16.47;37.56;98805.22;4895219;28;114238;-85
2023/04/27 09:08:19;;;;;;;;;;;15.90;61.70;;;16.46;37.78;98802.75;4898585;28;125511;-86
2023/04/27 09:10:47;;;;;;;;;;;15.90;61.90;;;16.52;37.76;98810.53;4895046;28;124314;-86
2023/04/27 09:13:13;;;;;;;;;;;16.00;61.80;;;16.53;37.81;98802.97;4911308;28;113604;-85
2023/04/27 09:15:48;;;;;;;;;;;16.00;61.80;;;16.60;37.68;98813.53;4901987;28;113859;-85
2023/04/27 09:18:19;;;;;;;;;;;16.00;61.70;;;16.67;37.80;98813.75;4907142;28;124334;-85
2023/04/27 09:20:50;;;;;;;;;;;16.10;61.70;;;16.74;37.45;98811.19;4901317;28;123964;-85
2023/04/27 09:23:34;;;;;;;;;;;16.20;61.30;;;16.73;37.06;98810.34;4901484;28;115360;-85
2023/04/27 09:26:02;;;;;;;;;;;16.20;60.50;;;16.70;37.01;98811.06;4900361;28;115144;-87
2023/04/27 09:28:33;;;;;;;;;;;16.30;60.60;;;16.73;37.28;98807.56;4901895;28;124067;-86
2023/04/27 09:31:03;;;;;;;;;;;16.30;60.90;;;16.77;36.91;98811.31;4895613;28;125039;-86
2023/04/27 09:33:32;;;;;;;;;;;16.20;60.30;;;16.80;36.79;98807.00;4899479;28;115056;-86
2023/04/27 09:36:00;;;;;;;;;;;16.30;60.20;;;16.84;36.63;98804.31;4903516;28;113848;-87
2023/04/27 09:38:26;;;;;;;;;;;16.30;60.00;;;16.88;36.45;98805.25;4899980;28;125059;-86
2023/04/27 09:40:53;;;;;;;;;;;16.30;59.80;;;16.88;36.69;98802.44;4911106;28;123422;-86
2023/04/27 09:43:20;;;;;;;;;;;16.40;60.00;;;16.94;36.78;98806.59;4899410;28;113892;-86
2023/04/27 09:45:48;;;;;;;;;;;16.50;59.90;;;17.01;36.30;98801.25;4891402;28;113770;-84
2023/04/27 09:48:15;;;;;;;;;;;16.50;59.30;;;17.05;35.62;98806.91;4888410;28;124361;-85
2023/04/27 09:50:43;;;;;;;;;;;16.50;58.20;;;17.03;35.59;98807.25;4898140;28;123435;-84
2023/04/27 09:53:21;;;;;;;;;;;15.80;57.70;;;17.05;35.51;98788.19;4896948;28;114468;-86
2023/04/27 09:56:20;;;;;;;;;;;16.60;58.60;;;17.13;35.84;98797.56;4904116;28;112733;-87
2023/04/27 09:59:13;;;;;;;;;;;16.60;58.40;;;17.12;35.46;98791.19;4917746;28;123653;-86
2023/04/27 10:01:45;;;;;;;;;;;16.60;57.90;;;17.13;35.34;98797.56;4902048;28;124884;-88
2023/04/27 10:04:20;;;;;;;;;;;16.70;57.60;;;17.14;35.64;98794.44;4909494;28;114577;-85
2023/04/27 10:06:55;;;;;;;;;;;16.70;57.80;;;17.15;35.17;98800.81;4909100;28;113939;-84
2023/04/27 10:09:22;;;;;;;;;;;16.70;57.00;;;17.14;35.34;98797.22;4910300;28;124200;-86
2023/04/27 10:11:50;;;;;;;;;;;16.80;57.40;;;17.22;35.42;98801.84;4906884;28;124102;-85
2023/04/27 10:14:18;;;;;;;;;;;16.80;57.40;;;17.32;35.46;98797.69;4906144;28;114849;-85
2023/04/27 10:16:52;;;;;;;;;;;16.80;57.70;;;17.43;35.41;98796.00;4905919;28;114541;-86
2023/04/27 10:19:20;;;;;;;;;;;16.90;58.10;;;17.53;35.09;98788.28;4899531;28;124097;-84
2023/04/27 10:22:02;;;;;;;;;;;17.00;57.30;;;17.61;34.89;98790.88;4907356;28;123720;-86
2023/04/27 10:24:37;;;;;;;;;;;17.10;57.10;;;17.65;34.48;98785.38;4908520;28;113938;-85
2023/04/27 10:27:10;;;;;;;;;;;17.10;56.40;;;17.72;34.88;98785.56;4916438;28;114099;-84
2023/04/27 10:29:40;;;;;;;;;;;17.20;57.20;;;17.77;34.74;98787.28;4909839;28;124929;-85
2023/04/27 10:32:32;;;;;;;;;;;17.20;56.70;;;17.85;34.83;98789.13;4913423;28;96825;-83
2023/04/27 10:35:06;;;;;;;;;;;17.30;57.10;;;17.86;34.37;98785.94;4907179;28;114328;-84
2023/04/27 10:37:42;;;;;;;;;;;17.40;56.50;;;17.91;34.31;98784.06;4914544;28;114324;-84
2023/04/27 10:40:13;;;;;;;;;;;17.40;56.30;;;17.97;34.42;98794.59;4905345;28;124476;-86
2023/04/27 10:42:40;;;;;;;;;;;17.50;56.70;;;17.95;33.98;98777.41;4902942;28;124276;-84
2023/04/27 10:45:11;;;;;;;;;;;17.60;55.70;;;17.99;33.80;98780.28;4882959;28;114013;-86
2023/04/27 10:47:43;;;;;;;;;;;17.60;55.40;;;18.05;34.08;98771.25;4898273;28;113941;-86
2023/04/27 10:50:12;;;;;;;;;;;17.60;55.70;;;18.16;34.44;98765.09;4904307;28;123401;-89
2023/04/27 10:52:42;;;;;;;;;;;17.70;56.30;;;18.24;33.85;98755.69;4909875;28;123566;-90
2023/04/27 10:55:22;;;;;;;;;;;17.70;55.60;;;18.29;33.57;98763.78;4915809;28;114293;-91
2023/04/27 10:57:53;;;;;;;;;;;17.80;55.20;;;18.34;33.74;98766.31;4911469;28;113170;-89
2023/04/27 11:00:24;;;;;;;;;;;17.80;55.70;;;18.43;33.43;98764.13;4908150;28;124084;-89
2023/04/27 11:02:52;;;;;;;;;;;17.90;54.90;;;18.47;33.08;98762.22;4903899;28;123862;-88
2023/04/27 11:05:21;;;;;;;;;;;18.00;54.60;;;18.53;33.01;98766.34;4893320;28;114979;-88
2023/04/27 11:07:55;;;;;;;;;;;18.00;54.10;;;18.55;33.16;98761.19;4892182;28;113993;-90
2023/04/27 11:10:21;;;;;;;;;;;18.00;54.40;;;18.62;32.85;98766.16;4907660;28;123523;-91
2023/04/27 11:12:49;;;;;;;;;;;18.00;54.20;;;18.64;33.22;98760.97;4910421;28;123773;-89
2023/04/27 11:15:16;;;;;;;;;;;18.10;54.40;;;18.69;32.98;98755.06;4904796;28;114408;-88
2023/04/27 11:17:43;;;;;;;;;;;18.20;54.40;;;18.77;32.91;98756.06;4908881;28;113858;-88